CheckWX is a tool to help pilots better visualize weather data.  It is not intended as a substitute for an official pre-flight weather briefing.

03:19:49 UTC

KGCN TAF
Grand Canyon National Park Airport
Grand Canyon, Arizona, USA
KGCN 162320Z 1700/1724 25010G20KT P6SM SCT200 FM170200 VRB05KT P6SM FEW200 FM172100 27010G20KT P6SM SCT200

Feb-17@
00:00 UTC

Feb-17 @ 00:00 UTC

Feb-17@
02:00 UTC

Feb-17 @ 02:00 UTC

KGCN 162320Z 1700/1724 25010G20KT P6SM SCT200

Expired

Wind
  • 250° at 10 KTS
  • {Gusting to 20 KTS
Cloud Levels
  • Scattered at 20,000' AGL

Feb-17@
02:00 UTC

Feb-17 @ 02:00 UTC

Feb-17@
21:00 UTC

Feb-17 @ 21:00 UTC

FM170200 VRB05KT P6SM FEW200

From

From Standard forecast or significant change

Wind
  • Variable at 5 KTS
Cloud Levels
  • Few at 20,000' AGL

Feb-17@
21:00 UTC

Feb-17 @ 21:00 UTC

Feb-18@
00:00 UTC

Feb-18 @ 00:00 UTC

FM172100 27010G20KT P6SM SCT200

From

From Standard forecast or significant change

Wind
  • 270° at 10 KTS
  • {Gusting to 20 KTS
Cloud Levels
  • Scattered at 20,000' AGL